sensor_id;sensor_type;location;lat;lon;timestamp;P1;durP1;ratioP1;P2;durP2;ratioP2
2720;SDS011;1368;49.484;11.112;2023-01-15T00:01:02;3.60;;;1.70;;
2720;SDS011;1368;49.484;11.112;2023-01-15T00:03:29;3.63;;;1.60;;
2720;SDS011;1368;49.484;11.112;2023-01-15T00:05:55;4.73;;;1.93;;
2720;SDS011;1368;49.484;11.112;2023-01-15T00:08:25;2.83;;;1.50;;
2720;SDS011;1368;49.484;11.112;2023-01-15T00:10:50;3.20;;;2.00;;
2720;SDS011;1368;49.484;11.112;2023-01-15T00:13:16;4.53;;;2.00;;
2720;SDS011;1368;49.484;11.112;2023-01-15T00:15:41;2.97;;;1.53;;
2720;SDS011;1368;49.484;11.112;2023-01-15T00:18:07;6.33;;;2.30;;
2720;SDS011;1368;49.484;11.112;2023-01-15T00:20:33;4.83;;;2.10;;
2720;SDS011;1368;49.484;11.112;2023-01-15T00:22:58;3.20;;;1.53;;
2720;SDS011;1368;49.484;11.112;2023-01-15T00:25:24;3.20;;;1.37;;
2720;SDS011;1368;49.484;11.112;2023-01-15T00:28:08;3.63;;;1.90;;
2720;SDS011;1368;49.484;11.112;2023-01-15T00:30:41;3.77;;;1.70;;
2720;SDS011;1368;49.484;11.112;2023-01-15T00:33:07;2.47;;;1.60;;
2720;SDS011;1368;49.484;11.112;2023-01-15T00:35:33;2.97;;;1.40;;
2720;SDS011;1368;49.484;11.112;2023-01-15T00:37:58;3.33;;;1.50;;
2720;SDS011;1368;49.484;11.112;2023-01-15T00:40:24;1.97;;;1.30;;
2720;SDS011;1368;49.484;11.112;2023-01-15T00:42:50;3.43;;;1.63;;
2720;SDS011;1368;49.484;11.112;2023-01-15T00:45:15;4.43;;;1.50;;
2720;SDS011;1368;49.484;11.112;2023-01-15T00:47:42;2.33;;;1.50;;
2720;SDS011;1368;49.484;11.112;2023-01-15T00:50:10;2.77;;;1.07;;
2720;SDS011;1368;49.484;11.112;2023-01-15T00:52:38;2.47;;;1.43;;
2720;SDS011;1368;49.484;11.112;2023-01-15T00:55:04;2.80;;;1.30;;
2720;SDS011;1368;49.484;11.112;2023-01-15T00:57:30;2.70;;;1.40;;
2720;SDS011;1368;49.484;11.112;2023-01-15T00:59:56;5.00;;;1.37;;
2720;SDS011;1368;49.484;11.112;2023-01-15T01:02:22;4.10;;;1.37;;
2720;SDS011;1368;49.484;11.112;2023-01-15T01:04:47;4.40;;;1.60;;
2720;SDS011;1368;49.484;11.112;2023-01-15T01:07:13;2.53;;;1.20;;
2720;SDS011;1368;49.484;11.112;2023-01-15T01:09:39;2.00;;;1.10;;
2720;SDS011;1368;49.484;11.112;2023-01-15T01:12:04;4.00;;;1.53;;
2720;SDS011;1368;49.484;11.112;2023-01-15T01:14:30;2.10;;;1.10;;
2720;SDS011;1368;49.484;11.112;2023-01-15T01:16:56;3.47;;;1.30;;
2720;SDS011;1368;49.484;11.112;2023-01-15T01:19:22;2.90;;;1.30;;
2720;SDS011;1368;49.484;11.112;2023-01-15T01:21:50;3.70;;;1.37;;
2720;SDS011;1368;49.484;11.112;2023-01-15T01:24:18;2.23;;;1.50;;
2720;SDS011;1368;49.484;11.112;2023-01-15T01:26:45;3.00;;;1.30;;
2720;SDS011;1368;49.484;11.112;2023-01-15T01:29:12;2.40;;;1.20;;
2720;SDS011;1368;49.484;11.112;2023-01-15T01:31:42;2.07;;;1.30;;
2720;SDS011;1368;49.484;11.112;2023-01-15T01:34:08;2.17;;;1.00;;
2720;SDS011;1368;49.484;11.112;2023-01-15T01:36:36;1.80;;;0.90;;
2720;SDS011;1368;49.484;11.112;2023-01-15T01:39:03;2.37;;;1.00;;
2720;SDS011;1368;49.484;11.112;2023-01-15T01:41:30;1.63;;;0.87;;
2720;SDS011;1368;49.484;11.112;2023-01-15T01:44:00;2.60;;;1.50;;
2720;SDS011;1368;49.484;11.112;2023-01-15T01:46:29;1.77;;;0.90;;
2720;SDS011;1368;49.484;11.112;2023-01-15T01:49:18;1.73;;;0.90;;
2720;SDS011;1368;49.484;11.112;2023-01-15T01:51:44;3.30;;;1.07;;
2720;SDS011;1368;49.484;11.112;2023-01-15T01:54:14;2.40;;;1.00;;
2720;SDS011;1368;49.484;11.112;2023-01-15T01:56:43;2.30;;;1.30;;
2720;SDS011;1368;49.484;11.112;2023-01-15T01:59:09;2.00;;;1.07;;
2720;SDS011;1368;49.484;11.112;2023-01-15T02:01:36;3.33;;;1.20;;
2720;SDS011;1368;49.484;11.112;2023-01-15T02:04:02;1.90;;;0.87;;
2720;SDS011;1368;49.484;11.112;2023-01-15T02:06:30;2.40;;;1.03;;
2720;SDS011;1368;49.484;11.112;2023-01-15T02:08:56;1.70;;;0.80;;
2720;SDS011;1368;49.484;11.112;2023-01-15T02:11:22;3.17;;;1.10;;
2720;SDS011;1368;49.484;11.112;2023-01-15T02:17:10;2.00;;;1.00;;
2720;SDS011;1368;49.484;11.112;2023-01-15T02:19:46;2.53;;;1.47;;
2720;SDS011;1368;49.484;11.112;2023-01-15T02:22:49;1.43;;;0.73;;
2720;SDS011;1368;49.484;11.112;2023-01-15T02:25:23;2.37;;;0.93;;
2720;SDS011;1368;49.484;11.112;2023-01-15T02:28:06;2.40;;;1.00;;
2720;SDS011;1368;49.484;11.112;2023-01-15T02:30:44;1.77;;;0.70;;
2720;SDS011;1368;49.484;11.112;2023-01-15T02:33:14;1.60;;;0.80;;
2720;SDS011;1368;49.484;11.112;2023-01-15T02:35:47;2.53;;;1.00;;
2720;SDS011;1368;49.484;11.112;2023-01-15T02:38:21;1.60;;;0.70;;
2720;SDS011;1368;49.484;11.112;2023-01-15T02:40:51;2.57;;;0.70;;
2720;SDS011;1368;49.484;11.112;2023-01-15T02:43:20;2.10;;;0.93;;
2720;SDS011;1368;49.484;11.112;2023-01-15T02:45:47;1.93;;;0.90;;
2720;SDS011;1368;49.484;11.112;2023-01-15T02:48:16;2.07;;;0.80;;
2720;SDS011;1368;49.484;11.112;2023-01-15T02:50:47;2.00;;;0.87;;
2720;SDS011;1368;49.484;11.112;2023-01-15T02:53:19;2.87;;;0.90;;
2720;SDS011;1368;49.484;11.112;2023-01-15T02:55:49;2.80;;;1.30;;
2720;SDS011;1368;49.484;11.112;2023-01-15T02:58:19;2.87;;;1.10;;
2720;SDS011;1368;49.484;11.112;2023-01-15T03:00:48;1.73;;;0.90;;
2720;SDS011;1368;49.484;11.112;2023-01-15T03:06:10;1.33;;;0.70;;
2720;SDS011;1368;49.484;11.112;2023-01-15T03:08:37;1.53;;;0.60;;
2720;SDS011;1368;49.484;11.112;2023-01-15T03:11:13;1.77;;;0.60;;
2720;SDS011;1368;49.484;11.112;2023-01-15T03:13:47;2.53;;;1.00;;
2720;SDS011;1368;49.484;11.112;2023-01-15T03:16:21;3.03;;;1.10;;
2720;SDS011;1368;49.484;11.112;2023-01-15T03:19:10;2.43;;;0.83;;
2720;SDS011;1368;49.484;11.112;2023-01-15T03:24:32;1.40;;;0.60;;
2720;SDS011;1368;49.484;11.112;2023-01-15T03:27:04;3.13;;;0.90;;
2720;SDS011;1368;49.484;11.112;2023-01-15T03:29:32;1.97;;;0.73;;
2720;SDS011;1368;49.484;11.112;2023-01-15T03:32:01;2.03;;;0.90;;
2720;SDS011;1368;49.484;11.112;2023-01-15T03:34:30;1.60;;;0.60;;
2720;SDS011;1368;49.484;11.112;2023-01-15T03:37:04;3.30;;;1.00;;
2720;SDS011;1368;49.484;11.112;2023-01-15T03:39:30;1.60;;;0.80;;
2720;SDS011;1368;49.484;11.112;2023-01-15T03:42:02;1.97;;;0.83;;
2720;SDS011;1368;49.484;11.112;2023-01-15T03:44:39;1.77;;;0.70;;
2720;SDS011;1368;49.484;11.112;2023-01-15T03:47:19;2.03;;;0.90;;
2720;SDS011;1368;49.484;11.112;2023-01-15T03:52:47;2.20;;;0.70;;
2720;SDS011;1368;49.484;11.112;2023-01-15T03:58:28;2.20;;;1.30;;
2720;SDS011;1368;49.484;11.112;2023-01-15T04:01:02;1.97;;;0.83;;
2720;SDS011;1368;49.484;11.112;2023-01-15T04:03:33;2.73;;;0.87;;
2720;SDS011;1368;49.484;11.112;2023-01-15T04:06:00;2.20;;;0.90;;
2720;SDS011;1368;49.484;11.112;2023-01-15T04:08:28;1.97;;;0.80;;
2720;SDS011;1368;49.484;11.112;2023-01-15T04:10:58;2.43;;;0.80;;
2720;SDS011;1368;49.484;11.112;2023-01-15T04:13:26;1.47;;;0.70;;
2720;SDS011;1368;49.484;11.112;2023-01-15T04:15:52;1.83;;;0.80;;
2720;SDS011;1368;49.484;11.112;2023-01-15T04:18:18;1.93;;;0.93;;
2720;SDS011;1368;49.484;11.112;2023-01-15T04:20:44;1.93;;;0.73;;
2720;SDS011;1368;49.484;11.112;2023-01-15T04:23:10;1.60;;;0.70;;
2720;SDS011;1368;49.484;11.112;2023-01-15T04:25:36;1.40;;;0.63;;
2720;SDS011;1368;49.484;11.112;2023-01-15T04:28:03;3.97;;;0.90;;
2720;SDS011;1368;49.484;11.112;2023-01-15T04:30:28;2.00;;;0.80;;
2720;SDS011;1368;49.484;11.112;2023-01-15T04:32:54;2.93;;;0.80;;
2720;SDS011;1368;49.484;11.112;2023-01-15T04:35:20;5.10;;;0.90;;
2720;SDS011;1368;49.484;11.112;2023-01-15T04:37:45;1.80;;;0.90;;
2720;SDS011;1368;49.484;11.112;2023-01-15T04:40:11;2.80;;;0.77;;
2720;SDS011;1368;49.484;11.112;2023-01-15T04:42:57;1.40;;;0.60;;
2720;SDS011;1368;49.484;11.112;2023-01-15T04:45:42;1.50;;;0.70;;
2720;SDS011;1368;49.484;11.112;2023-01-15T04:48:08;2.27;;;0.80;;
2720;SDS011;1368;49.484;11.112;2023-01-15T04:50:34;2.70;;;0.77;;
2720;SDS011;1368;49.484;11.112;2023-01-15T04:52:59;1.87;;;0.90;;
2720;SDS011;1368;49.484;11.112;2023-01-15T04:55:25;1.73;;;0.73;;
2720;SDS011;1368;49.484;11.112;2023-01-15T04:57:50;2.47;;;0.93;;
2720;SDS011;1368;49.484;11.112;2023-01-15T05:00:16;3.10;;;0.70;;
2720;SDS011;1368;49.484;11.112;2023-01-15T05:02:42;2.20;;;0.77;;
2720;SDS011;1368;49.484;11.112;2023-01-15T05:05:08;1.43;;;0.60;;
2720;SDS011;1368;49.484;11.112;2023-01-15T05:07:33;1.43;;;0.70;;
2720;SDS011;1368;49.484;11.112;2023-01-15T05:09:59;2.53;;;0.60;;
2720;SDS011;1368;49.484;11.112;2023-01-15T05:12:24;2.80;;;0.83;;
2720;SDS011;1368;49.484;11.112;2023-01-15T05:14:50;1.40;;;0.60;;
2720;SDS011;1368;49.484;11.112;2023-01-15T05:17:16;1.40;;;0.53;;
2720;SDS011;1368;49.484;11.112;2023-01-15T05:19:41;1.70;;;0.67;;
2720;SDS011;1368;49.484;11.112;2023-01-15T05:22:07;2.23;;;0.90;;
2720;SDS011;1368;49.484;11.112;2023-01-15T05:24:33;2.50;;;0.70;;
2720;SDS011;1368;49.484;11.112;2023-01-15T05:26:59;7.43;;;0.90;;
2720;SDS011;1368;49.484;11.112;2023-01-15T05:29:25;1.80;;;1.03;;
2720;SDS011;1368;49.484;11.112;2023-01-15T05:31:50;2.70;;;0.70;;
2720;SDS011;1368;49.484;11.112;2023-01-15T05:34:16;1.33;;;0.57;;
2720;SDS011;1368;49.484;11.112;2023-01-15T05:36:41;2.20;;;0.70;;
2720;SDS011;1368;49.484;11.112;2023-01-15T05:39:07;5.13;;;0.87;;
2720;SDS011;1368;49.484;11.112;2023-01-15T05:41:32;1.80;;;0.77;;
2720;SDS011;1368;49.484;11.112;2023-01-15T05:44:14;3.30;;;0.60;;
2720;SDS011;1368;49.484;11.112;2023-01-15T05:46:45;2.10;;;0.77;;
2720;SDS011;1368;49.484;11.112;2023-01-15T05:49:13;1.30;;;0.50;;
2720;SDS011;1368;49.484;11.112;2023-01-15T05:51:41;2.80;;;0.73;;
2720;SDS011;1368;49.484;11.112;2023-01-15T05:54:09;2.03;;;0.70;;
2720;SDS011;1368;49.484;11.112;2023-01-15T05:56:37;1.70;;;0.70;;
2720;SDS011;1368;49.484;11.112;2023-01-15T05:59:03;1.40;;;0.60;;
2720;SDS011;1368;49.484;11.112;2023-01-15T06:01:30;4.37;;;0.90;;
2720;SDS011;1368;49.484;11.112;2023-01-15T06:03:59;1.50;;;0.70;;
2720;SDS011;1368;49.484;11.112;2023-01-15T06:06:27;2.57;;;0.70;;
2720;SDS011;1368;49.484;11.112;2023-01-15T06:08:53;2.00;;;0.80;;
2720;SDS011;1368;49.484;11.112;2023-01-15T06:11:18;2.03;;;1.10;;
2720;SDS011;1368;49.484;11.112;2023-01-15T06:13:44;4.70;;;0.90;;
2720;SDS011;1368;49.484;11.112;2023-01-15T06:16:10;3.60;;;0.77;;
2720;SDS011;1368;49.484;11.112;2023-01-15T06:18:36;1.50;;;0.70;;
2720;SDS011;1368;49.484;11.112;2023-01-15T06:21:03;2.20;;;0.90;;
2720;SDS011;1368;49.484;11.112;2023-01-15T06:23:30;1.73;;;0.70;;
2720;SDS011;1368;49.484;11.112;2023-01-15T06:25:59;3.30;;;0.80;;
2720;SDS011;1368;49.484;11.112;2023-01-15T06:28:26;1.20;;;0.50;;
2720;SDS011;1368;49.484;11.112;2023-01-15T06:30:51;2.53;;;0.70;;
2720;SDS011;1368;49.484;11.112;2023-01-15T06:33:17;1.97;;;1.00;;
2720;SDS011;1368;49.484;11.112;2023-01-15T06:35:42;1.67;;;0.80;;
2720;SDS011;1368;49.484;11.112;2023-01-15T06:38:08;1.53;;;0.87;;
2720;SDS011;1368;49.484;11.112;2023-01-15T06:40:33;3.30;;;0.80;;
2720;SDS011;1368;49.484;11.112;2023-01-15T06:43:00;2.10;;;1.00;;
2720;SDS011;1368;49.484;11.112;2023-01-15T06:45:44;1.60;;;0.70;;
2720;SDS011;1368;49.484;11.112;2023-01-15T06:48:29;1.80;;;0.87;;
2720;SDS011;1368;49.484;11.112;2023-01-15T06:50:54;2.80;;;0.57;;
2720;SDS011;1368;49.484;11.112;2023-01-15T06:53:20;5.00;;;0.60;;
2720;SDS011;1368;49.484;11.112;2023-01-15T06:55:46;3.47;;;0.70;;
2720;SDS011;1368;49.484;11.112;2023-01-15T06:58:12;1.57;;;0.70;;
2720;SDS011;1368;49.484;11.112;2023-01-15T07:00:38;1.50;;;0.73;;
2720;SDS011;1368;49.484;11.112;2023-01-15T07:03:07;1.40;;;0.57;;
2720;SDS011;1368;49.484;11.112;2023-01-15T07:05:32;3.57;;;0.57;;
2720;SDS011;1368;49.484;11.112;2023-01-15T07:07:58;1.30;;;0.50;;
2720;SDS011;1368;49.484;11.112;2023-01-15T07:10:24;1.30;;;0.60;;
2720;SDS011;1368;49.484;11.112;2023-01-15T07:12:49;1.97;;;0.70;;
2720;SDS011;1368;49.484;11.112;2023-01-15T07:15:15;2.53;;;0.70;;
2720;SDS011;1368;49.484;11.112;2023-01-15T07:17:40;1.67;;;0.70;;
2720;SDS011;1368;49.484;11.112;2023-01-15T07:20:06;1.20;;;0.60;;
2720;SDS011;1368;49.484;11.112;2023-01-15T07:22:32;1.70;;;0.70;;
2720;SDS011;1368;49.484;11.112;2023-01-15T07:24:58;2.20;;;1.00;;
2720;SDS011;1368;49.484;11.112;2023-01-15T07:27:23;5.83;;;1.77;;
2720;SDS011;1368;49.484;11.112;2023-01-15T07:29:49;4.20;;;1.77;;
2720;SDS011;1368;49.484;11.112;2023-01-15T07:32:16;4.47;;;1.63;;
2720;SDS011;1368;49.484;11.112;2023-01-15T07:34:42;1.87;;;0.97;;
2720;SDS011;1368;49.484;11.112;2023-01-15T07:37:08;3.10;;;1.33;;
2720;SDS011;1368;49.484;11.112;2023-01-15T07:39:34;4.80;;;2.00;;
2720;SDS011;1368;49.484;11.112;2023-01-15T07:41:59;10.20;;;2.70;;
2720;SDS011;1368;49.484;11.112;2023-01-15T07:44:44;4.97;;;2.33;;
2720;SDS011;1368;49.484;11.112;2023-01-15T07:47:28;3.60;;;1.47;;
2720;SDS011;1368;49.484;11.112;2023-01-15T07:50:14;2.63;;;1.43;;
2720;SDS011;1368;49.484;11.112;2023-01-15T07:52:41;5.40;;;1.50;;
2720;SDS011;1368;49.484;11.112;2023-01-15T07:55:07;3.13;;;1.30;;
2720;SDS011;1368;49.484;11.112;2023-01-15T07:57:34;3.33;;;0.90;;
2720;SDS011;1368;49.484;11.112;2023-01-15T08:00:00;4.80;;;0.80;;
2720;SDS011;1368;49.484;11.112;2023-01-15T08:02:26;1.70;;;0.70;;
2720;SDS011;1368;49.484;11.112;2023-01-15T08:04:52;2.23;;;1.00;;
2720;SDS011;1368;49.484;11.112;2023-01-15T08:07:18;2.23;;;1.10;;
2720;SDS011;1368;49.484;11.112;2023-01-15T08:09:43;2.43;;;1.53;;
2720;SDS011;1368;49.484;11.112;2023-01-15T08:12:09;2.00;;;1.10;;
2720;SDS011;1368;49.484;11.112;2023-01-15T08:14:54;2.30;;;0.87;;
2720;SDS011;1368;49.484;11.112;2023-01-15T08:17:39;3.40;;;1.90;;
2720;SDS011;1368;49.484;11.112;2023-01-15T08:20:07;2.83;;;1.67;;
2720;SDS011;1368;49.484;11.112;2023-01-15T08:22:39;1.83;;;1.17;;
2720;SDS011;1368;49.484;11.112;2023-01-15T08:25:05;3.30;;;1.70;;
2720;SDS011;1368;49.484;11.112;2023-01-15T08:27:32;1.73;;;1.20;;
2720;SDS011;1368;49.484;11.112;2023-01-15T08:29:57;1.80;;;0.83;;
2720;SDS011;1368;49.484;11.112;2023-01-15T08:32:23;3.00;;;1.00;;
2720;SDS011;1368;49.484;11.112;2023-01-15T08:34:49;1.60;;;0.80;;
2720;SDS011;1368;49.484;11.112;2023-01-15T08:37:15;2.07;;;0.90;;
2720;SDS011;1368;49.484;11.112;2023-01-15T08:39:41;1.57;;;0.90;;
2720;SDS011;1368;49.484;11.112;2023-01-15T08:42:06;1.77;;;0.80;;
2720;SDS011;1368;49.484;11.112;2023-01-15T08:44:32;1.50;;;0.90;;
2720;SDS011;1368;49.484;11.112;2023-01-15T08:46:58;1.67;;;0.80;;
2720;SDS011;1368;49.484;11.112;2023-01-15T08:49:23;2.37;;;1.40;;
2720;SDS011;1368;49.484;11.112;2023-01-15T08:51:49;1.67;;;0.90;;
2720;SDS011;1368;49.484;11.112;2023-01-15T08:54:16;1.90;;;1.10;;
2720;SDS011;1368;49.484;11.112;2023-01-15T08:56:45;2.20;;;1.03;;
2720;SDS011;1368;49.484;11.112;2023-01-15T08:59:11;1.77;;;1.00;;
2720;SDS011;1368;49.484;11.112;2023-01-15T09:01:37;1.70;;;1.00;;
2720;SDS011;1368;49.484;11.112;2023-01-15T09:04:04;2.50;;;1.17;;
2720;SDS011;1368;49.484;11.112;2023-01-15T09:06:30;3.57;;;1.40;;
2720;SDS011;1368;49.484;11.112;2023-01-15T09:08:59;3.87;;;1.80;;
2720;SDS011;1368;49.484;11.112;2023-01-15T09:11:25;2.57;;;1.67;;
2720;SDS011;1368;49.484;11.112;2023-01-15T09:13:51;1.93;;;0.70;;
2720;SDS011;1368;49.484;11.112;2023-01-15T09:16:18;2.87;;;1.90;;
2720;SDS011;1368;49.484;11.112;2023-01-15T09:18:43;2.80;;;1.10;;
2720;SDS011;1368;49.484;11.112;2023-01-15T09:21:09;3.90;;;1.00;;
2720;SDS011;1368;49.484;11.112;2023-01-15T09:23:35;4.70;;;2.40;;
2720;SDS011;1368;49.484;11.112;2023-01-15T09:26:01;3.90;;;1.93;;
2720;SDS011;1368;49.484;11.112;2023-01-15T09:28:30;2.00;;;1.30;;
2720;SDS011;1368;49.484;11.112;2023-01-15T09:30:57;7.70;;;2.60;;
2720;SDS011;1368;49.484;11.112;2023-01-15T09:33:22;2.50;;;1.30;;
2720;SDS011;1368;49.484;11.112;2023-01-15T09:35:48;4.90;;;2.83;;
2720;SDS011;1368;49.484;11.112;2023-01-15T09:38:15;2.10;;;0.90;;
2720;SDS011;1368;49.484;11.112;2023-01-15T09:40:45;3.80;;;1.13;;
2720;SDS011;1368;49.484;11.112;2023-01-15T09:43:21;2.20;;;0.93;;
2720;SDS011;1368;49.484;11.112;2023-01-15T09:46:16;1.77;;;0.90;;
2720;SDS011;1368;49.484;11.112;2023-01-15T09:54:25;1.77;;;0.93;;
2720;SDS011;1368;49.484;11.112;2023-01-15T09:56:56;1.97;;;0.90;;
2720;SDS011;1368;49.484;11.112;2023-01-15T09:59:31;2.70;;;1.23;;
2720;SDS011;1368;49.484;11.112;2023-01-15T10:01:59;1.57;;;0.80;;
2720;SDS011;1368;49.484;11.112;2023-01-15T10:04:37;2.33;;;1.00;;
2720;SDS011;1368;49.484;11.112;2023-01-15T10:09:57;1.97;;;1.07;;
2720;SDS011;1368;49.484;11.112;2023-01-15T10:12:27;7.80;;;2.20;;
2720;SDS011;1368;49.484;11.112;2023-01-15T10:15:13;1.90;;;1.00;;
2720;SDS011;1368;49.484;11.112;2023-01-15T10:17:52;2.43;;;1.17;;
2720;SDS011;1368;49.484;11.112;2023-01-15T10:20:37;1.90;;;1.27;;
2720;SDS011;1368;49.484;11.112;2023-01-15T10:26:18;1.83;;;0.93;;
2720;SDS011;1368;49.484;11.112;2023-01-15T10:31:19;2.17;;;1.00;;
2720;SDS011;1368;49.484;11.112;2023-01-15T10:36:38;1.13;;;0.60;;
2720;SDS011;1368;49.484;11.112;2023-01-15T10:39:21;1.93;;;1.00;;
2720;SDS011;1368;49.484;11.112;2023-01-15T10:45:21;1.77;;;0.90;;
2720;SDS011;1368;49.484;11.112;2023-01-15T10:47:51;2.50;;;1.00;;
2720;SDS011;1368;49.484;11.112;2023-01-15T10:50:24;1.83;;;1.03;;
2720;SDS011;1368;49.484;11.112;2023-01-15T10:52:58;3.07;;;1.63;;
2720;SDS011;1368;49.484;11.112;2023-01-15T10:55:46;4.87;;;3.33;;
2720;SDS011;1368;49.484;11.112;2023-01-15T10:58:18;3.20;;;1.97;;
2720;SDS011;1368;49.484;11.112;2023-01-15T11:00:59;3.03;;;2.10;;
2720;SDS011;1368;49.484;11.112;2023-01-15T11:03:31;3.00;;;2.17;;
2720;SDS011;1368;49.484;11.112;2023-01-15T11:06:02;3.33;;;2.10;;
2720;SDS011;1368;49.484;11.112;2023-01-15T11:08:28;3.77;;;2.07;;
2720;SDS011;1368;49.484;11.112;2023-01-15T11:10:55;3.50;;;2.20;;
2720;SDS011;1368;49.484;11.112;2023-01-15T11:13:23;5.33;;;3.30;;
2720;SDS011;1368;49.484;11.112;2023-01-15T11:16:12;4.50;;;2.40;;
2720;SDS011;1368;49.484;11.112;2023-01-15T11:19:02;6.83;;;2.53;;
2720;SDS011;1368;49.484;11.112;2023-01-15T11:21:48;4.87;;;2.10;;
2720;SDS011;1368;49.484;11.112;2023-01-15T11:24:15;2.07;;;1.57;;
2720;SDS011;1368;49.484;11.112;2023-01-15T11:26:44;2.60;;;1.50;;
2720;SDS011;1368;49.484;11.112;2023-01-15T11:29:15;2.70;;;1.80;;
2720;SDS011;1368;49.484;11.112;2023-01-15T11:32:16;2.70;;;1.53;;
2720;SDS011;1368;49.484;11.112;2023-01-15T11:37:38;4.10;;;2.50;;
2720;SDS011;1368;49.484;11.112;2023-01-15T11:40:04;3.30;;;2.10;;
2720;SDS011;1368;49.484;11.112;2023-01-15T11:42:37;9.47;;;3.47;;
2720;SDS011;1368;49.484;11.112;2023-01-15T11:45:28;4.63;;;3.17;;
2720;SDS011;1368;49.484;11.112;2023-01-15T11:48:19;4.87;;;3.67;;
2720;SDS011;1368;49.484;11.112;2023-01-15T11:51:14;4.67;;;3.13;;
2720;SDS011;1368;49.484;11.112;2023-01-15T11:53:42;5.30;;;2.90;;
2720;SDS011;1368;49.484;11.112;2023-01-15T11:56:15;5.70;;;3.77;;
2720;SDS011;1368;49.484;11.112;2023-01-15T11:58:44;4.60;;;2.93;;
2720;SDS011;1368;49.484;11.112;2023-01-15T12:03:51;3.77;;;2.10;;
2720;SDS011;1368;49.484;11.112;2023-01-15T12:06:17;3.03;;;1.90;;
2720;SDS011;1368;49.484;11.112;2023-01-15T12:14:31;3.37;;;1.90;;
2720;SDS011;1368;49.484;11.112;2023-01-15T12:28:11;2.50;;;1.50;;
2720;SDS011;1368;49.484;11.112;2023-01-15T12:33:36;2.20;;;1.00;;
2720;SDS011;1368;49.484;11.112;2023-01-15T12:36:21;1.80;;;1.00;;
2720;SDS011;1368;49.484;11.112;2023-01-15T12:41:29;2.03;;;1.10;;
2720;SDS011;1368;49.484;11.112;2023-01-15T12:44:42;2.50;;;1.20;;
2720;SDS011;1368;49.484;11.112;2023-01-15T12:47:28;2.60;;;1.40;;
2720;SDS011;1368;49.484;11.112;2023-01-15T12:52:42;2.37;;;1.20;;
2720;SDS011;1368;49.484;11.112;2023-01-15T12:55:20;2.27;;;1.50;;
2720;SDS011;1368;49.484;11.112;2023-01-15T12:57:52;1.53;;;0.80;;
2720;SDS011;1368;49.484;11.112;2023-01-15T13:00:34;3.13;;;1.87;;
2720;SDS011;1368;49.484;11.112;2023-01-15T13:05:52;3.53;;;1.70;;
2720;SDS011;1368;49.484;11.112;2023-01-15T13:08:55;5.37;;;2.30;;
2720;SDS011;1368;49.484;11.112;2023-01-15T13:11:26;5.13;;;1.77;;
2720;SDS011;1368;49.484;11.112;2023-01-15T13:13:52;4.40;;;1.70;;
2720;SDS011;1368;49.484;11.112;2023-01-15T13:19:20;2.47;;;1.60;;
2720;SDS011;1368;49.484;11.112;2023-01-15T13:21:56;2.60;;;1.83;;
2720;SDS011;1368;49.484;11.112;2023-01-15T13:32:52;2.20;;;1.20;;
2720;SDS011;1368;49.484;11.112;2023-01-15T13:35:29;2.13;;;1.30;;
2720;SDS011;1368;49.484;11.112;2023-01-15T13:37:58;2.13;;;1.00;;
2720;SDS011;1368;49.484;11.112;2023-01-15T13:40:27;4.30;;;1.03;;
2720;SDS011;1368;49.484;11.112;2023-01-15T13:42:59;2.40;;;1.00;;
2720;SDS011;1368;49.484;11.112;2023-01-15T13:45:36;2.03;;;1.00;;
2720;SDS011;1368;49.484;11.112;2023-01-15T13:48:14;2.37;;;1.10;;
2720;SDS011;1368;49.484;11.112;2023-01-15T13:50:55;3.30;;;1.37;;
2720;SDS011;1368;49.484;11.112;2023-01-15T13:53:25;4.10;;;2.40;;
2720;SDS011;1368;49.484;11.112;2023-01-15T13:56:10;3.57;;;1.57;;
2720;SDS011;1368;49.484;11.112;2023-01-15T13:58:58;3.70;;;2.30;;
2720;SDS011;1368;49.484;11.112;2023-01-15T14:04:02;4.17;;;2.07;;
2720;SDS011;1368;49.484;11.112;2023-01-15T14:06:44;4.43;;;1.70;;
2720;SDS011;1368;49.484;11.112;2023-01-15T14:09:12;2.67;;;1.67;;
2720;SDS011;1368;49.484;11.112;2023-01-15T14:17:42;6.80;;;2.47;;
2720;SDS011;1368;49.484;11.112;2023-01-15T14:26:06;8.10;;;5.30;;
2720;SDS011;1368;49.484;11.112;2023-01-15T14:28:47;4.83;;;4.00;;
2720;SDS011;1368;49.484;11.112;2023-01-15T14:34:27;7.67;;;4.87;;
2720;SDS011;1368;49.484;11.112;2023-01-15T14:41:54;4.40;;;3.13;;
2720;SDS011;1368;49.484;11.112;2023-01-15T14:55:36;5.97;;;2.33;;
2720;SDS011;1368;49.484;11.112;2023-01-15T14:58:33;7.53;;;2.60;;
2720;SDS011;1368;49.484;11.112;2023-01-15T15:01:01;5.77;;;2.90;;
2720;SDS011;1368;49.484;11.112;2023-01-15T15:03:45;5.70;;;2.73;;
2720;SDS011;1368;49.484;11.112;2023-01-15T15:06:17;3.60;;;1.50;;
2720;SDS011;1368;49.484;11.112;2023-01-15T15:08:44;11.37;;;1.60;;
2720;SDS011;1368;49.484;11.112;2023-01-15T15:11:14;2.87;;;1.87;;
2720;SDS011;1368;49.484;11.112;2023-01-15T15:14:20;5.10;;;2.13;;
2720;SDS011;1368;49.484;11.112;2023-01-15T15:16:49;10.00;;;2.63;;
2720;SDS011;1368;49.484;11.112;2023-01-15T15:19:22;7.10;;;1.30;;
2720;SDS011;1368;49.484;11.112;2023-01-15T15:22:03;3.03;;;1.90;;
2720;SDS011;1368;49.484;11.112;2023-01-15T15:24:32;5.70;;;1.50;;
2720;SDS011;1368;49.484;11.112;2023-01-15T15:29:43;6.77;;;1.80;;
2720;SDS011;1368;49.484;11.112;2023-01-15T15:32:11;4.50;;;2.40;;
2720;SDS011;1368;49.484;11.112;2023-01-15T15:34:42;7.40;;;1.90;;
2720;SDS011;1368;49.484;11.112;2023-01-15T15:37:11;5.67;;;2.00;;
2720;SDS011;1368;49.484;11.112;2023-01-15T15:45:24;4.17;;;2.13;;
2720;SDS011;1368;49.484;11.112;2023-01-15T15:48:12;4.20;;;2.00;;
2720;SDS011;1368;49.484;11.112;2023-01-15T15:54:23;5.90;;;2.00;;
2720;SDS011;1368;49.484;11.112;2023-01-15T15:59:46;4.53;;;2.00;;
2720;SDS011;1368;49.484;11.112;2023-01-15T16:04:50;7.13;;;2.97;;
2720;SDS011;1368;49.484;11.112;2023-01-15T16:07:24;5.60;;;2.40;;
2720;SDS011;1368;49.484;11.112;2023-01-15T16:10:03;5.47;;;2.00;;
2720;SDS011;1368;49.484;11.112;2023-01-15T16:12:41;7.83;;;2.50;;
2720;SDS011;1368;49.484;11.112;2023-01-15T16:15:17;5.63;;;2.30;;
2720;SDS011;1368;49.484;11.112;2023-01-15T16:17:44;5.30;;;2.87;;
2720;SDS011;1368;49.484;11.112;2023-01-15T16:20:11;8.17;;;2.30;;
2720;SDS011;1368;49.484;11.112;2023-01-15T16:22:55;5.27;;;2.80;;
2720;SDS011;1368;49.484;11.112;2023-01-15T16:25:34;4.87;;;2.70;;
2720;SDS011;1368;49.484;11.112;2023-01-15T16:28:05;4.67;;;2.60;;
2720;SDS011;1368;49.484;11.112;2023-01-15T16:30:46;5.00;;;2.50;;
2720;SDS011;1368;49.484;11.112;2023-01-15T16:33:23;6.33;;;3.50;;
2720;SDS011;1368;49.484;11.112;2023-01-15T16:35:54;9.37;;;4.60;;
2720;SDS011;1368;49.484;11.112;2023-01-15T16:38:22;5.70;;;3.30;;
2720;SDS011;1368;49.484;11.112;2023-01-15T16:40:48;6.83;;;3.40;;
2720;SDS011;1368;49.484;11.112;2023-01-15T16:43:15;7.33;;;3.67;;
2720;SDS011;1368;49.484;11.112;2023-01-15T16:51:21;4.77;;;3.50;;
2720;SDS011;1368;49.484;11.112;2023-01-15T16:53:46;7.37;;;2.93;;
2720;SDS011;1368;49.484;11.112;2023-01-15T16:58:51;7.30;;;3.40;;
2720;SDS011;1368;49.484;11.112;2023-01-15T17:03:57;7.80;;;4.13;;
2720;SDS011;1368;49.484;11.112;2023-01-15T17:06:24;15.07;;;5.73;;
2720;SDS011;1368;49.484;11.112;2023-01-15T17:08:51;9.67;;;5.90;;
2720;SDS011;1368;49.484;11.112;2023-01-15T17:11:19;7.90;;;4.27;;
2720;SDS011;1368;49.484;11.112;2023-01-15T17:14:10;5.83;;;3.90;;
2720;SDS011;1368;49.484;11.112;2023-01-15T17:17:13;5.20;;;2.87;;
2720;SDS011;1368;49.484;11.112;2023-01-15T17:19:44;11.80;;;4.40;;
2720;SDS011;1368;49.484;11.112;2023-01-15T17:24:54;13.10;;;3.50;;
2720;SDS011;1368;49.484;11.112;2023-01-15T17:27:22;5.70;;;3.30;;
2720;SDS011;1368;49.484;11.112;2023-01-15T17:29:48;8.43;;;3.60;;
2720;SDS011;1368;49.484;11.112;2023-01-15T17:32:19;5.50;;;2.80;;
2720;SDS011;1368;49.484;11.112;2023-01-15T17:34:51;5.27;;;2.70;;
2720;SDS011;1368;49.484;11.112;2023-01-15T17:37:16;6.13;;;2.73;;
2720;SDS011;1368;49.484;11.112;2023-01-15T17:39:42;5.63;;;3.37;;
2720;SDS011;1368;49.484;11.112;2023-01-15T17:42:15;6.90;;;4.00;;
2720;SDS011;1368;49.484;11.112;2023-01-15T17:44:42;5.77;;;2.70;;
2720;SDS011;1368;49.484;11.112;2023-01-15T17:47:09;8.03;;;3.90;;